sensor_id;sensor_type;location;lat;lon;timestamp;pressure;altitude;pressure_sealevel;temperature;humidity
57094;BME280;42970;50.996;3.706;2023-02-23T00:01:49;75311.34;;;-146.65;100.00
57094;BME280;42970;50.996;3.706;2023-02-23T00:04:14;75319.41;;;-146.65;100.00
57094;BME280;42970;50.996;3.706;2023-02-23T00:06:42;75321.41;;;-146.65;100.00
57094;BME280;42970;50.996;3.706;2023-02-23T00:09:08;75323.44;;;-146.65;100.00
57094;BME280;42970;50.996;3.706;2023-02-23T00:11:46;75323.44;;;-146.65;100.00
57094;BME280;42970;50.996;3.706;2023-02-23T00:14:11;75329.50;;;-146.65;100.00
57094;BME280;42970;50.996;3.706;2023-02-23T00:16:37;75327.47;;;-146.65;100.00
57094;BME280;42970;50.996;3.706;2023-02-23T00:19:02;75329.50;;;-146.65;100.00
57094;BME280;42970;50.996;3.706;2023-02-23T00:21:32;75329.50;;;-146.65;100.00
57094;BME280;42970;50.996;3.706;2023-02-23T00:24:00;75325.47;;;-146.65;100.00
57094;BME280;42970;50.996;3.706;2023-02-23T00:26:26;75331.50;;;-146.65;100.00
57094;BME280;42970;50.996;3.706;2023-02-23T00:28:55;75345.63;;;-146.65;100.00
57094;BME280;42970;50.996;3.706;2023-02-23T00:31:21;75339.56;;;-146.65;100.00
57094;BME280;42970;50.996;3.706;2023-02-23T00:33:50;75333.53;;;-146.65;100.00
57094;BME280;42970;50.996;3.706;2023-02-23T00:36:17;75335.53;;;-146.65;100.00
57094;BME280;42970;50.996;3.706;2023-02-23T00:38:43;75337.56;;;-146.65;100.00
57094;BME280;42970;50.996;3.706;2023-02-23T00:41:10;75331.50;;;-146.65;100.00
57094;BME280;42970;50.996;3.706;2023-02-23T00:43:37;75319.41;;;-146.65;100.00
57094;BME280;42970;50.996;3.706;2023-02-23T00:46:03;75331.50;;;-146.65;100.00
57094;BME280;42970;50.996;3.706;2023-02-23T00:48:32;75327.47;;;-146.65;100.00
57094;BME280;42970;50.996;3.706;2023-02-23T00:51:01;75331.50;;;-146.65;100.00
57094;BME280;42970;50.996;3.706;2023-02-23T00:53:28;75329.50;;;-146.65;100.00
57094;BME280;42970;50.996;3.706;2023-02-23T00:55:54;75319.41;;;-146.65;100.00
57094;BME280;42970;50.996;3.706;2023-02-23T00:58:20;75329.50;;;-146.65;100.00
57094;BME280;42970;50.996;3.706;2023-02-23T01:00:46;75331.50;;;-146.65;100.00
57094;BME280;42970;50.996;3.706;2023-02-23T01:03:11;75319.41;;;-146.65;100.00
57094;BME280;42970;50.996;3.706;2023-02-23T01:05:36;75343.59;;;-146.65;100.00
57094;BME280;42970;50.996;3.706;2023-02-23T01:08:02;75343.59;;;-146.65;100.00
57094;BME280;42970;50.996;3.706;2023-02-23T01:10:28;75347.66;;;-146.65;100.00
57094;BME280;42970;50.996;3.706;2023-02-23T01:12:54;75341.59;;;-146.65;100.00
57094;BME280;42970;50.996;3.706;2023-02-23T01:15:19;75343.59;;;-146.65;100.00
57094;BME280;42970;50.996;3.706;2023-02-23T01:17:45;75343.59;;;-146.65;100.00
57094;BME280;42970;50.996;3.706;2023-02-23T01:20:12;75345.63;;;-146.65;100.00
57094;BME280;42970;50.996;3.706;2023-02-23T01:22:45;75349.66;;;-146.65;100.00
57094;BME280;42970;50.996;3.706;2023-02-23T01:25:10;75347.66;;;-146.65;100.00
57094;BME280;42970;50.996;3.706;2023-02-23T01:27:37;75345.63;;;-146.65;100.00
57094;BME280;42970;50.996;3.706;2023-02-23T01:30:02;75345.63;;;-146.65;100.00
57094;BME280;42970;50.996;3.706;2023-02-23T01:32:28;75357.72;;;-146.65;100.00
57094;BME280;42970;50.996;3.706;2023-02-23T01:34:53;75355.72;;;-146.65;100.00
57094;BME280;42970;50.996;3.706;2023-02-23T01:37:18;75343.59;;;-146.65;100.00
57094;BME280;42970;50.996;3.706;2023-02-23T01:39:43;75337.56;;;-146.65;100.00
57094;BME280;42970;50.996;3.706;2023-02-23T01:42:11;75349.66;;;-146.65;100.00
57094;BME280;42970;50.996;3.706;2023-02-23T01:47:03;75361.75;;;-146.65;100.00
57094;BME280;42970;50.996;3.706;2023-02-23T01:49:29;75359.75;;;-146.65;100.00
57094;BME280;42970;50.996;3.706;2023-02-23T01:51:58;75359.75;;;-146.65;100.00
57094;BME280;42970;50.996;3.706;2023-02-23T01:54:30;75355.72;;;-146.65;100.00
57094;BME280;42970;50.996;3.706;2023-02-23T01:56:57;75367.81;;;-146.65;100.00
57094;BME280;42970;50.996;3.706;2023-02-23T02:02:04;75359.75;;;-146.65;100.00
57094;BME280;42970;50.996;3.706;2023-02-23T02:04:30;75365.78;;;-146.65;100.00
57094;BME280;42970;50.996;3.706;2023-02-23T02:07:07;75367.81;;;-146.65;100.00
57094;BME280;42970;50.996;3.706;2023-02-23T02:09:33;75367.81;;;-146.65;100.00
57094;BME280;42970;50.996;3.706;2023-02-23T02:12:02;75359.75;;;-146.65;100.00
57094;BME280;42970;50.996;3.706;2023-02-23T02:14:32;75365.78;;;-146.65;100.00
57094;BME280;42970;50.996;3.706;2023-02-23T02:17:05;75375.88;;;-146.65;100.00
57094;BME280;42970;50.996;3.706;2023-02-23T02:25:22;75381.94;;;-146.65;100.00
57094;BME280;42970;50.996;3.706;2023-02-23T02:30:11;75383.94;;;-146.65;100.00
57094;BME280;42970;50.996;3.706;2023-02-23T02:40:57;75381.94;;;-146.65;100.00
57094;BME280;42970;50.996;3.706;2023-02-23T02:45:54;75383.94;;;-146.65;100.00
57094;BME280;42970;50.996;3.706;2023-02-23T02:50:52;75408.16;;;-146.65;100.00
57094;BME280;42970;50.996;3.706;2023-02-23T02:53:33;75410.16;;;-146.65;100.00
57094;BME280;42970;50.996;3.706;2023-02-23T02:56:02;75402.09;;;-146.65;100.00
57094;BME280;42970;50.996;3.706;2023-02-23T02:58:29;75394.03;;;-146.65;100.00
57094;BME280;42970;50.996;3.706;2023-02-23T03:00:55;75385.97;;;-146.65;100.00
57094;BME280;42970;50.996;3.706;2023-02-23T03:03:42;75379.91;;;-146.65;100.00
57094;BME280;42970;50.996;3.706;2023-02-23T03:11:59;75412.19;;;-146.65;100.00
57094;BME280;42970;50.996;3.706;2023-02-23T03:14:51;75418.25;;;-146.65;100.00
57094;BME280;42970;50.996;3.706;2023-02-23T03:20:44;75402.09;;;-146.65;100.00
57094;BME280;42970;50.996;3.706;2023-02-23T03:29:18;75412.19;;;-146.65;100.00
57094;BME280;42970;50.996;3.706;2023-02-23T03:32:08;75418.25;;;-146.65;100.00
57094;BME280;42970;50.996;3.706;2023-02-23T03:35:39;75422.28;;;-146.65;100.00
57094;BME280;42970;50.996;3.706;2023-02-23T03:40:50;75418.25;;;-146.65;100.00
57094;BME280;42970;50.996;3.706;2023-02-23T03:43:44;75414.19;;;-146.65;100.00
57094;BME280;42970;50.996;3.706;2023-02-23T03:46:29;75416.22;;;-146.65;100.00
57094;BME280;42970;50.996;3.706;2023-02-23T03:49:13;75408.16;;;-146.65;100.00
57094;BME280;42970;50.996;3.706;2023-02-23T03:52:01;75410.16;;;-146.65;100.00
57094;BME280;42970;50.996;3.706;2023-02-23T03:55:31;75414.19;;;-146.65;100.00
57094;BME280;42970;50.996;3.706;2023-02-23T03:57:55;75430.34;;;-146.65;100.00
57094;BME280;42970;50.996;3.706;2023-02-23T04:00:45;75424.28;;;-146.65;100.00
57094;BME280;42970;50.996;3.706;2023-02-23T04:03:31;75412.19;;;-146.65;100.00
57094;BME280;42970;50.996;3.706;2023-02-23T04:06:16;75438.41;;;-146.65;100.00
57094;BME280;42970;50.996;3.706;2023-02-23T04:09:02;75434.38;;;-146.65;100.00
57094;BME280;42970;50.996;3.706;2023-02-23T04:11:52;75436.38;;;-146.65;100.00
57094;BME280;42970;50.996;3.706;2023-02-23T04:14:40;75442.44;;;-146.65;100.00
57094;BME280;42970;50.996;3.706;2023-02-23T04:17:08;75442.44;;;-146.65;100.00
57094;BME280;42970;50.996;3.706;2023-02-23T04:19:33;75438.41;;;-146.65;100.00
57094;BME280;42970;50.996;3.706;2023-02-23T04:21:58;75420.25;;;-146.65;100.00
57094;BME280;42970;50.996;3.706;2023-02-23T04:24:24;75410.16;;;-146.65;100.00
57094;BME280;42970;50.996;3.706;2023-02-23T04:26:49;75414.19;;;-146.65;100.00
57094;BME280;42970;50.996;3.706;2023-02-23T04:29:15;75406.13;;;-146.65;100.00
57094;BME280;42970;50.996;3.706;2023-02-23T04:31:40;75408.16;;;-146.65;100.00
57094;BME280;42970;50.996;3.706;2023-02-23T04:34:05;75404.13;;;-146.65;100.00
57094;BME280;42970;50.996;3.706;2023-02-23T04:36:31;75410.16;;;-146.65;100.00
57094;BME280;42970;50.996;3.706;2023-02-23T04:38:56;75428.31;;;-146.65;100.00
57094;BME280;42970;50.996;3.706;2023-02-23T04:41:22;75428.31;;;-146.65;100.00
57094;BME280;42970;50.996;3.706;2023-02-23T04:43:47;75436.38;;;-146.65;100.00
57094;BME280;42970;50.996;3.706;2023-02-23T04:46:12;75438.41;;;-146.65;100.00
57094;BME280;42970;50.996;3.706;2023-02-23T04:48:38;75444.47;;;-146.65;100.00
57094;BME280;42970;50.996;3.706;2023-02-23T04:51:03;75446.47;;;-146.65;100.00
57094;BME280;42970;50.996;3.706;2023-02-23T04:53:28;75450.50;;;-146.65;100.00
57094;BME280;42970;50.996;3.706;2023-02-23T04:55:54;75464.63;;;-146.65;100.00
57094;BME280;42970;50.996;3.706;2023-02-23T04:58:19;75476.72;;;-146.65;100.00
57094;BME280;42970;50.996;3.706;2023-02-23T05:00:44;75484.78;;;-146.65;100.00
57094;BME280;42970;50.996;3.706;2023-02-23T05:03:09;75472.69;;;-146.65;100.00
57094;BME280;42970;50.996;3.706;2023-02-23T05:05:36;75470.69;;;-146.65;100.00
57094;BME280;42970;50.996;3.706;2023-02-23T05:08:02;75480.75;;;-146.65;100.00
57094;BME280;42970;50.996;3.706;2023-02-23T05:10:27;75502.94;;;-146.65;100.00
57094;BME280;42970;50.996;3.706;2023-02-23T05:12:53;75504.97;;;-146.65;100.00
57094;BME280;42970;50.996;3.706;2023-02-23T05:15:19;75500.94;;;-146.65;100.00
57094;BME280;42970;50.996;3.706;2023-02-23T05:17:45;75517.06;;;-146.65;100.00
57094;BME280;42970;50.996;3.706;2023-02-23T05:20:11;75529.16;;;-146.65;100.00
57094;BME280;42970;50.996;3.706;2023-02-23T05:22:37;75541.28;;;-146.65;100.00
57094;BME280;42970;50.996;3.706;2023-02-23T05:25:02;75555.41;;;-146.65;100.00
57094;BME280;42970;50.996;3.706;2023-02-23T05:27:28;75557.41;;;-146.65;100.00
57094;BME280;42970;50.996;3.706;2023-02-23T05:29:56;75541.28;;;-146.65;100.00
57094;BME280;42970;50.996;3.706;2023-02-23T05:32:21;75529.16;;;-146.65;100.00
57094;BME280;42970;50.996;3.706;2023-02-23T05:34:47;75541.28;;;-146.65;100.00
57094;BME280;42970;50.996;3.706;2023-02-23T05:37:16;75517.06;;;-146.65;100.00
57094;BME280;42970;50.996;3.706;2023-02-23T05:40:02;75529.16;;;-146.65;100.00
57094;BME280;42970;50.996;3.706;2023-02-23T05:42:27;75533.22;;;-146.65;100.00
57094;BME280;42970;50.996;3.706;2023-02-23T05:44:53;75523.13;;;-146.65;100.00
57094;BME280;42970;50.996;3.706;2023-02-23T05:47:18;75515.06;;;-146.65;100.00
57094;BME280;42970;50.996;3.706;2023-02-23T05:49:44;75517.06;;;-146.65;100.00
57094;BME280;42970;50.996;3.706;2023-02-23T05:52:10;75525.13;;;-146.65;100.00
57094;BME280;42970;50.996;3.706;2023-02-23T05:54:35;75521.09;;;-146.65;100.00
57094;BME280;42970;50.996;3.706;2023-02-23T05:57:00;75507.00;;;-146.65;100.00
57094;BME280;42970;50.996;3.706;2023-02-23T05:59:26;75502.94;;;-146.65;100.00
57094;BME280;42970;50.996;3.706;2023-02-23T06:01:51;75500.94;;;-146.65;100.00
57094;BME280;42970;50.996;3.706;2023-02-23T06:04:16;75517.06;;;-146.65;100.00
57094;BME280;42970;50.996;3.706;2023-02-23T06:06:42;75537.25;;;-146.65;100.00
57094;BME280;42970;50.996;3.706;2023-02-23T06:09:07;75525.13;;;-146.65;100.00
57094;BME280;42970;50.996;3.706;2023-02-23T06:11:33;75535.22;;;-146.65;100.00
57094;BME280;42970;50.996;3.706;2023-02-23T06:13:58;75549.34;;;-146.65;100.00
57094;BME280;42970;50.996;3.706;2023-02-23T06:16:24;75539.25;;;-146.65;100.00
57094;BME280;42970;50.996;3.706;2023-02-23T06:18:49;75539.25;;;-146.65;100.00
57094;BME280;42970;50.996;3.706;2023-02-23T06:21:14;75535.22;;;-146.65;100.00
57094;BME280;42970;50.996;3.706;2023-02-23T06:23:40;75543.28;;;-146.65;100.00
57094;BME280;42970;50.996;3.706;2023-02-23T06:26:05;75541.28;;;-146.65;100.00
57094;BME280;42970;50.996;3.706;2023-02-23T06:28:31;75537.25;;;-146.65;100.00
57094;BME280;42970;50.996;3.706;2023-02-23T06:30:57;75531.19;;;-146.65;100.00
57094;BME280;42970;50.996;3.706;2023-02-23T06:33:22;75531.19;;;-146.65;100.00
57094;BME280;42970;50.996;3.706;2023-02-23T06:35:48;75525.13;;;-146.65;100.00
57094;BME280;42970;50.996;3.706;2023-02-23T06:38:13;75531.19;;;-146.65;100.00
57094;BME280;42970;50.996;3.706;2023-02-23T06:40:38;75541.28;;;-146.65;100.00
57094;BME280;42970;50.996;3.706;2023-02-23T06:43:04;75541.28;;;-146.65;100.00
57094;BME280;42970;50.996;3.706;2023-02-23T06:45:30;75537.25;;;-146.65;100.00
57094;BME280;42970;50.996;3.706;2023-02-23T06:47:56;75537.25;;;-146.65;100.00
57094;BME280;42970;50.996;3.706;2023-02-23T06:50:21;75533.22;;;-146.65;100.00
57094;BME280;42970;50.996;3.706;2023-02-23T06:52:47;75539.25;;;-146.65;100.00
57094;BME280;42970;50.996;3.706;2023-02-23T06:55:13;75531.19;;;-146.65;100.00
57094;BME280;42970;50.996;3.706;2023-02-23T06:57:39;75531.19;;;-146.65;100.00
57094;BME280;42970;50.996;3.706;2023-02-23T07:00:05;75537.25;;;-146.65;100.00
57094;BME280;42970;50.996;3.706;2023-02-23T07:02:31;75533.22;;;-146.65;100.00
57094;BME280;42970;50.996;3.706;2023-02-23T07:04:56;75527.16;;;-146.65;100.00
57094;BME280;42970;50.996;3.706;2023-02-23T07:07:23;75529.16;;;-146.65;100.00
57094;BME280;42970;50.996;3.706;2023-02-23T07:09:48;75531.19;;;-146.65;100.00
57094;BME280;42970;50.996;3.706;2023-02-23T07:12:14;75519.09;;;-146.65;100.00
57094;BME280;42970;50.996;3.706;2023-02-23T07:14:40;75500.94;;;-146.65;100.00
57094;BME280;42970;50.996;3.706;2023-02-23T07:17:05;75511.03;;;-146.65;100.00
57094;BME280;42970;50.996;3.706;2023-02-23T07:19:31;75519.09;;;-146.65;100.00
57094;BME280;42970;50.996;3.706;2023-02-23T07:21:56;75515.06;;;-146.65;100.00
57094;BME280;42970;50.996;3.706;2023-02-23T07:24:22;75504.97;;;-146.65;100.00
57094;BME280;42970;50.996;3.706;2023-02-23T07:26:47;75502.94;;;-146.65;100.00
57094;BME280;42970;50.996;3.706;2023-02-23T07:29:13;75513.03;;;-146.65;100.00
57094;BME280;42970;50.996;3.706;2023-02-23T07:31:39;75511.03;;;-146.65;100.00
57094;BME280;42970;50.996;3.706;2023-02-23T07:34:04;75529.16;;;-146.65;100.00
57094;BME280;42970;50.996;3.706;2023-02-23T07:36:30;75521.09;;;-146.65;100.00
57094;BME280;42970;50.996;3.706;2023-02-23T07:38:55;75500.94;;;-146.65;100.00
57094;BME280;42970;50.996;3.706;2023-02-23T07:41:21;75494.88;;;-146.65;100.00
57094;BME280;42970;50.996;3.706;2023-02-23T07:43:47;75513.03;;;-146.65;100.00
57094;BME280;42970;50.996;3.706;2023-02-23T07:46:12;75535.22;;;-146.65;100.00
57094;BME280;42970;50.996;3.706;2023-02-23T07:48:39;75539.25;;;-146.65;100.00
57094;BME280;42970;50.996;3.706;2023-02-23T07:51:07;75543.28;;;-146.65;100.00
57094;BME280;42970;50.996;3.706;2023-02-23T07:53:33;75545.31;;;-146.65;100.00
57094;BME280;42970;50.996;3.706;2023-02-23T07:55:59;75541.28;;;-146.65;100.00
57094;BME280;42970;50.996;3.706;2023-02-23T07:58:28;75541.28;;;-146.65;100.00
57094;BME280;42970;50.996;3.706;2023-02-23T08:00:54;75525.13;;;-146.65;100.00
57094;BME280;42970;50.996;3.706;2023-02-23T08:03:20;75527.16;;;-146.65;100.00
57094;BME280;42970;50.996;3.706;2023-02-23T08:05:46;75541.28;;;-146.65;100.00
57094;BME280;42970;50.996;3.706;2023-02-23T08:08:11;75537.25;;;-146.65;100.00
57094;BME280;42970;50.996;3.706;2023-02-23T08:10:37;75529.16;;;-146.65;100.00
57094;BME280;42970;50.996;3.706;2023-02-23T08:13:02;75527.16;;;-146.65;100.00
57094;BME280;42970;50.996;3.706;2023-02-23T08:15:28;75519.09;;;-146.65;100.00
57094;BME280;42970;50.996;3.706;2023-02-23T08:17:53;75521.09;;;-146.65;100.00
57094;BME280;42970;50.996;3.706;2023-02-23T08:20:18;75521.09;;;-146.65;100.00
57094;BME280;42970;50.996;3.706;2023-02-23T08:22:44;75513.03;;;-146.65;100.00
57094;BME280;42970;50.996;3.706;2023-02-23T08:25:09;75507.00;;;-146.65;100.00
57094;BME280;42970;50.996;3.706;2023-02-23T08:27:35;75492.88;;;-146.65;100.00
57094;BME280;42970;50.996;3.706;2023-02-23T08:30:00;75484.78;;;-146.65;100.00
57094;BME280;42970;50.996;3.706;2023-02-23T08:32:28;75476.72;;;-146.65;100.00
57094;BME280;42970;50.996;3.706;2023-02-23T08:34:54;75468.66;;;-146.65;100.00
57094;BME280;42970;50.996;3.706;2023-02-23T08:37:21;75472.69;;;-146.65;100.00
57094;BME280;42970;50.996;3.706;2023-02-23T08:39:47;75466.66;;;-146.65;100.00
57094;BME280;42970;50.996;3.706;2023-02-23T08:42:12;75458.56;;;-146.65;100.00
57094;BME280;42970;50.996;3.706;2023-02-23T08:44:38;75448.50;;;-146.65;100.00
57094;BME280;42970;50.996;3.706;2023-02-23T08:47:03;75446.47;;;-146.65;100.00
57094;BME280;42970;50.996;3.706;2023-02-23T08:49:29;75432.34;;;-146.65;100.00
57094;BME280;42970;50.996;3.706;2023-02-23T08:51:56;75440.44;;;-146.65;100.00
57094;BME280;42970;50.996;3.706;2023-02-23T08:54:21;75444.47;;;-146.65;100.00
57094;BME280;42970;50.996;3.706;2023-02-23T08:56:47;75454.53;;;-146.65;100.00
57094;BME280;42970;50.996;3.706;2023-02-23T08:59:12;75438.41;;;-146.65;100.00
57094;BME280;42970;50.996;3.706;2023-02-23T09:01:38;75446.47;;;-146.65;100.00
57094;BME280;42970;50.996;3.706;2023-02-23T09:04:03;75432.34;;;-146.65;100.00
57094;BME280;42970;50.996;3.706;2023-02-23T09:06:29;75430.34;;;-146.65;100.00
57094;BME280;42970;50.996;3.706;2023-02-23T09:08:54;75416.22;;;-146.65;100.00
57094;BME280;42970;50.996;3.706;2023-02-23T09:11:20;75436.38;;;-146.65;100.00
57094;BME280;42970;50.996;3.706;2023-02-23T09:13:46;75436.38;;;-146.65;100.00
57094;BME280;42970;50.996;3.706;2023-02-23T09:16:11;75436.38;;;-146.65;100.00
57094;BME280;42970;50.996;3.706;2023-02-23T09:18:36;75418.25;;;-146.65;100.00
57094;BME280;42970;50.996;3.706;2023-02-23T09:21:03;75432.34;;;-146.65;100.00
57094;BME280;42970;50.996;3.706;2023-02-23T09:23:30;75426.31;;;-146.65;100.00
57094;BME280;42970;50.996;3.706;2023-02-23T09:25:55;75416.22;;;-146.65;100.00
57094;BME280;42970;50.996;3.706;2023-02-23T09:28:21;75410.16;;;-146.65;100.00
57094;BME280;42970;50.996;3.706;2023-02-23T09:30:46;75410.16;;;-146.65;100.00
57094;BME280;42970;50.996;3.706;2023-02-23T09:33:12;75396.06;;;-146.65;100.00
57094;BME280;42970;50.996;3.706;2023-02-23T09:35:38;75398.06;;;-146.65;100.00
57094;BME280;42970;50.996;3.706;2023-02-23T09:38:04;75373.88;;;-146.65;100.00
57094;BME280;42970;50.996;3.706;2023-02-23T09:40:34;75396.06;;;-146.65;100.00
57094;BME280;42970;50.996;3.706;2023-02-23T09:48:32;75369.84;;;-146.65;100.00
57094;BME280;42970;50.996;3.706;2023-02-23T09:50:58;75371.84;;;-146.65;100.00
57094;BME280;42970;50.996;3.706;2023-02-23T09:53:26;75373.88;;;-146.65;100.00
57094;BME280;42970;50.996;3.706;2023-02-23T09:55:55;75347.66;;;-146.65;100.00
57094;BME280;42970;50.996;3.706;2023-02-23T09:58:28;75359.75;;;-146.65;100.00
57094;BME280;42970;50.996;3.706;2023-02-23T10:03:38;75361.75;;;-146.65;100.00
57094;BME280;42970;50.996;3.706;2023-02-23T10:06:06;75365.78;;;-146.65;100.00
57094;BME280;42970;50.996;3.706;2023-02-23T10:08:41;75355.72;;;-146.65;100.00
57094;BME280;42970;50.996;3.706;2023-02-23T10:11:20;75373.88;;;-146.65;100.00
57094;BME280;42970;50.996;3.706;2023-02-23T10:13:55;75343.59;;;-146.65;100.00
57094;BME280;42970;50.996;3.706;2023-02-23T10:16:35;75357.72;;;-146.65;100.00
57094;BME280;42970;50.996;3.706;2023-02-23T10:21:56;75363.78;;;-146.65;100.00
57094;BME280;42970;50.996;3.706;2023-02-23T10:24:38;75375.88;;;-146.65;100.00
57094;BME280;42970;50.996;3.706;2023-02-23T10:27:16;75349.66;;;-146.65;100.00
57094;BME280;42970;50.996;3.706;2023-02-23T10:29:44;75323.44;;;-146.65;100.00
57094;BME280;42970;50.996;3.706;2023-02-23T10:32:19;75307.31;;;-146.65;100.00
57094;BME280;42970;50.996;3.706;2023-02-23T10:34:46;75337.56;;;-146.65;100.00
57094;BME280;42970;50.996;3.706;2023-02-23T10:37:13;75315.38;;;-146.65;100.00
57094;BME280;42970;50.996;3.706;2023-02-23T10:39:40;75323.44;;;-146.65;100.00
57094;BME280;42970;50.996;3.706;2023-02-23T10:42:06;75315.38;;;-146.65;100.00
57094;BME280;42970;50.996;3.706;2023-02-23T10:44:36;75333.53;;;-146.65;100.00
57094;BME280;42970;50.996;3.706;2023-02-23T10:47:05;75319.41;;;-146.65;100.00
57094;BME280;42970;50.996;3.706;2023-02-23T10:49:38;75307.31;;;-146.65;100.00
57094;BME280;42970;50.996;3.706;2023-02-23T10:52:07;75305.28;;;-146.65;100.00
57094;BME280;42970;50.996;3.706;2023-02-23T10:54:34;75305.28;;;-146.65;100.00
57094;BME280;42970;50.996;3.706;2023-02-23T10:56:59;75301.25;;;-146.65;100.00
57094;BME280;42970;50.996;3.706;2023-02-23T10:59:25;75301.25;;;-146.65;100.00
57094;BME280;42970;50.996;3.706;2023-02-23T11:01:51;75283.09;;;-146.65;100.00
57094;BME280;42970;50.996;3.706;2023-02-23T11:04:27;75291.16;;;-146.65;100.00
57094;BME280;42970;50.996;3.706;2023-02-23T11:09:37;75266.97;;;-146.65;100.00
57094;BME280;42970;50.996;3.706;2023-02-23T11:12:23;75236.72;;;-146.65;100.00
57094;BME280;42970;50.996;3.706;2023-02-23T11:14:54;75246.78;;;-146.65;100.00
57094;BME280;42970;50.996;3.706;2023-02-23T11:19:48;75293.19;;;-146.65;100.00
57094;BME280;42970;50.996;3.706;2023-02-23T11:22:19;75315.38;;;-146.65;100.00
57094;BME280;42970;50.996;3.706;2023-02-23T11:24:51;75319.41;;;-146.65;100.00
57094;BME280;42970;50.996;3.706;2023-02-23T11:27:19;75329.50;;;-146.65;100.00
57094;BME280;42970;50.996;3.706;2023-02-23T11:29:47;75371.84;;;-146.65;100.00
57094;BME280;42970;50.996;3.706;2023-02-23T11:32:28;75373.88;;;-146.65;100.00
57094;BME280;42970;50.996;3.706;2023-02-23T11:37:39;75383.94;;;-146.65;100.00
57094;BME280;42970;50.996;3.706;2023-02-23T11:40:25;75392.00;;;-146.65;100.00
57094;BME280;42970;50.996;3.706;2023-02-23T11:45:32;75371.84;;;-146.65;100.00
57094;BME280;42970;50.996;3.706;2023-02-23T11:48:01;75371.84;;;-146.65;100.00
57094;BME280;42970;50.996;3.706;2023-02-23T11:50:29;75367.81;;;-146.65;100.00
57094;BME280;42970;50.996;3.706;2023-02-23T11:53:03;75375.88;;;-146.65;100.00
57094;BME280;42970;50.996;3.706;2023-02-23T11:55:29;75381.94;;;-146.65;100.00
57094;BME280;42970;50.996;3.706;2023-02-23T11:58:09;75381.94;;;-146.65;100.00
57094;BME280;42970;50.996;3.706;2023-02-23T12:00:35;75355.72;;;-146.65;100.00
57094;BME280;42970;50.996;3.706;2023-02-23T12:03:01;75347.66;;;-146.65;100.00
57094;BME280;42970;50.996;3.706;2023-02-23T12:05:30;75359.75;;;-146.65;100.00
57094;BME280;42970;50.996;3.706;2023-02-23T12:10:23;75349.66;;;-146.65;100.00
57094;BME280;42970;50.996;3.706;2023-02-23T12:13:15;75347.66;;;-146.65;100.00
57094;BME280;42970;50.996;3.706;2023-02-23T12:18:07;75317.38;;;-146.65;100.00
57094;BME280;42970;50.996;3.706;2023-02-23T12:20:39;75309.31;;;-146.65;100.00
57094;BME280;42970;50.996;3.706;2023-02-23T12:23:09;75289.16;;;-146.65;100.00
57094;BME280;42970;50.996;3.706;2023-02-23T12:25:45;75254.88;;;-146.65;100.00
57094;BME280;42970;50.996;3.706;2023-02-23T12:28:20;75232.69;;;-146.65;100.00
57094;BME280;42970;50.996;3.706;2023-02-23T12:30:53;75210.50;;;-146.65;100.00
57094;BME280;42970;50.996;3.706;2023-02-23T12:33:23;75214.53;;;-146.65;100.00
57094;BME280;42970;50.996;3.706;2023-02-23T12:38:28;75214.53;;;-146.65;100.00
57094;BME280;42970;50.996;3.706;2023-02-23T12:41:03;75224.59;;;-146.65;100.00
57094;BME280;42970;50.996;3.706;2023-02-23T12:43:35;75234.69;;;-146.65;100.00
57094;BME280;42970;50.996;3.706;2023-02-23T12:46:12;75246.78;;;-146.65;100.00
57094;BME280;42970;50.996;3.706;2023-02-23T12:48:49;75248.81;;;-146.65;100.00
57094;BME280;42970;50.996;3.706;2023-02-23T12:51:29;75230.66;;;-146.65;100.00
57094;BME280;42970;50.996;3.706;2023-02-23T12:53:56;75246.78;;;-146.65;100.00
57094;BME280;42970;50.996;3.706;2023-02-23T12:56:37;75242.75;;;-146.65;100.00
57094;BME280;42970;50.996;3.706;2023-02-23T13:06:54;75242.75;;;-146.65;100.00
57094;BME280;42970;50.996;3.706;2023-02-23T13:09:39;75248.81;;;-146.65;100.00
57094;BME280;42970;50.996;3.706;2023-02-23T13:20:14;75200.41;;;-146.65;100.00
57094;BME280;42970;50.996;3.706;2023-02-23T13:27:43;75154.03;;;-146.65;97.14
57094;BME280;42970;50.996;3.706;2023-02-23T13:30:12;75121.75;;;-146.65;97.12
57094;BME280;42970;50.996;3.706;2023-02-23T13:32:40;75145.94;;;-146.65;95.20
57094;BME280;42970;50.996;3.706;2023-02-23T13:35:07;75150.00;;;-146.65;95.25
57094;BME280;42970;50.996;3.706;2023-02-23T13:37:45;75170.16;;;-146.65;95.77
57094;BME280;42970;50.996;3.706;2023-02-23T13:40:23;75145.94;;;-146.65;96.31
57094;BME280;42970;50.996;3.706;2023-02-23T13:45:40;75077.38;;;-146.65;94.01
57094;BME280;42970;50.996;3.706;2023-02-23T13:48:18;75129.81;;;-146.65;91.99
57094;BME280;42970;50.996;3.706;2023-02-23T13:50:54;75192.34;;;-146.65;95.14
57094;BME280;42970;50.996;3.706;2023-02-23T13:54:03;75234.69;;;-146.65;98.01
57094;BME280;42970;50.996;3.706;2023-02-23T13:56:15;75254.88;;;-146.65;99.55
57094;BME280;42970;50.996;3.706;2023-02-23T13:58:45;75277.06;;;-146.65;99.83
57094;BME280;42970;50.996;3.706;2023-02-23T14:01:15;75277.06;;;-146.65;99.57
57094;BME280;42970;50.996;3.706;2023-02-23T14:03:46;75277.06;;;-146.65;99.17
57094;BME280;42970;50.996;3.706;2023-02-23T14:06:14;75236.72;;;-146.65;99.50
57094;BME280;42970;50.996;3.706;2023-02-23T14:08:41;75220.56;;;-146.65;99.26
57094;BME280;42970;50.996;3.706;2023-02-23T14:11:09;75214.53;;;-146.65;98.21
57094;BME280;42970;50.996;3.706;2023-02-23T14:13:40;75218.56;;;-146.65;96.12
57094;BME280;42970;50.996;3.706;2023-02-23T14:16:21;75222.59;;;-146.65;96.04
57094;BME280;42970;50.996;3.706;2023-02-23T14:19:06;75234.69;;;-146.65;95.70